Time;durP1;ratioP1;P1;durP2;ratioP2;P2;SDS_P1;SDS_P2;PMS_P1;PMS_P2;Temp;Humidity;BMP_temperature;BMP_pressure;BME280_temperature;BME280_humidity;BME280_pressure;Samples;Min_cycle;Max_cycle;Signal;HPM_P1;HPM_P2
2022/08/06 00:02:20;;;;;;;4.30;3.80;;;;;;;17.79;76.41;98877.58;104706;1274;76673;-24
2022/08/06 00:04:52;;;;;;;3.20;2.80;;;;;;;17.55;76.99;98873.22;104589;1272;75983;-24
2022/08/06 00:07:19;;;;;;;3.10;2.80;;;;;;;17.87;76.86;98873.54;104661;1274;74731;-24
2022/08/06 00:09:52;;;;;;;5.70;3.50;;;;;;;18.31;74.87;98881.80;104708;1274;61331;-24
2022/08/06 00:12:28;;;;;;;3.60;3.20;;;;;;;18.26;74.11;98885.05;104584;1274;61982;-24
2022/08/06 00:14:57;;;;;;;4.30;3.00;;;;;;;18.03;74.81;98887.86;104752;1271;74122;-24
2022/08/06 00:17:25;;;;;;;5.40;3.90;;;;;;;17.79;75.35;98882.54;104703;1271;77003;-24
2022/08/06 00:19:59;;;;;;;5.10;4.50;;;;;;;17.51;76.75;98887.61;104636;1274;75581;-24
2022/08/06 00:22:28;;;;;;;3.40;3.10;;;;;;;17.28;77.58;98881.47;104638;1271;64814;-24
2022/08/06 00:24:56;;;;;;;5.80;4.10;;;;;;;17.63;78.59;98883.73;104735;1274;63230;-24
2022/08/06 00:27:24;;;;;;;4.70;4.20;;;;;;;18.11;77.21;98889.19;103969;1271;1291729;-24
2022/08/06 00:29:56;;;;;;;5.30;4.30;;;;;;;18.18;76.28;98887.19;104637;1274;76139;-24
2022/08/06 00:32:32;;;;;;;6.00;5.40;;;;;;;18.04;76.12;98885.13;104716;1274;73277;-24
2022/08/06 00:35:00;;;;;;;10.60;5.30;;;;;;;17.80;76.31;98877.80;104800;1271;63103;-24
2022/08/06 00:37:28;;;;;;;3.30;2.90;;;;;;;17.59;76.94;98875.80;104659;1271;61842;-24
2022/08/06 00:40:16;;;;;;;8.70;6.50;;;;;;;18.00;76.73;98876.11;104782;1271;76560;-24
2022/08/06 00:42:50;;;;;;;6.60;5.90;;;;;;;18.43;76.32;98872.23;104614;1271;76704;-25
2022/08/06 00:45:21;;;;;;;5.30;4.80;;;;;;;18.44;76.04;98869.05;104758;1271;73808;-24
2022/08/06 00:47:54;;;;;;;5.30;4.70;;;;;;;18.26;75.77;98868.38;104663;1271;61950;-24
2022/08/06 00:50:33;;;;;;;6.80;5.10;;;;;;;18.00;77.03;98876.41;104497;1271;61131;-24
2022/08/06 00:53:01;;;;;;;6.60;4.40;;;;;;;17.80;78.77;98876.58;104538;1274;76751;-24
2022/08/06 00:55:30;;;;;;;16.40;8.40;;;;;;;18.19;76.97;98878.31;104689;1274;76990;-24
2022/08/06 00:58:06;;;;;;;7.60;4.40;;;;;;;18.59;75.31;98879.15;104683;1271;75408;-24
2022/08/06 01:00:39;;;;;;;8.60;6.20;;;;;;;18.55;75.91;98877.81;104447;1274;63011;-24
2022/08/06 01:03:17;;;;;;;15.70;7.50;;;;;;;18.36;76.08;98880.23;104742;1271;61138;-24
2022/08/06 01:06:05;;;;;;;12.20;6.50;;;;;;;18.09;75.89;98881.77;105003;1271;76828;-24
2022/08/06 01:08:52;;;;;;;11.50;6.80;;;;;;;17.82;76.73;98880.91;104620;1271;76969;-24
2022/08/06 01:11:20;;;;;;;19.40;9.10;;;;;;;18.14;74.98;98882.54;104737;1271;75731;-24
2022/08/06 01:13:48;;;;;;;31.90;15.70;;;;;;;18.33;74.24;98878.83;104870;1271;62999;-24
2022/08/06 01:16:47;;;;;;;14.20;8.50;;;;;;;18.07;75.18;98877.90;104878;1271;61773;-24
2022/08/06 01:19:36;;;;;;;7.50;5.30;;;;;;;17.75;76.47;98874.90;104862;1271;76250;-24
2022/08/06 01:22:27;;;;;;;7.40;5.40;;;;;;;17.38;77.47;98875.79;104652;1271;76017;-25
2022/08/06 01:25:33;;;;;;;6.10;4.10;;;;;;;17.11;78.19;98876.60;104693;1271;74260;-23
2022/08/06 01:28:24;;;;;;;5.70;4.40;;;;;;;17.64;76.73;98872.56;104704;1271;63093;-24
2022/08/06 01:31:05;;;;;;;5.10;4.50;;;;;;;17.93;74.97;98877.60;104661;1271;61173;-24
2022/08/06 01:33:44;;;;;;;4.40;3.90;;;;;;;17.82;74.58;98881.14;104675;1274;75352;-24
2022/08/06 01:36:23;;;;;;;4.80;4.30;;;;;;;17.56;74.92;98889.77;105089;1271;77024;-24
2022/08/06 01:38:55;;;;;;;5.50;5.00;;;;;;;17.28;75.78;98889.70;104780;1272;75377;-24
2022/08/06 01:41:39;;;;;;;5.20;3.70;;;;;;;17.05;76.73;98898.13;104756;1271;63678;-24
2022/08/06 01:44:36;;;;;;;3.60;3.20;;;;;;;17.50;76.09;98888.00;104627;1274;63382;-24
2022/08/06 01:47:06;;;;;;;3.90;3.30;;;;;;;17.75;75.76;98890.00;104797;1271;76748;-24
2022/08/06 01:49:50;;;;;;;4.10;3.70;;;;;;;17.56;75.57;98896.44;104861;1271;75900;-24
2022/08/06 01:52:38;;;;;;;4.50;3.30;;;;;;;17.26;75.49;98895.60;104769;1271;75473;-24
2022/08/06 01:56:05;;;;;;;6.50;4.40;;;;;;;16.91;77.24;98896.98;101649;1309;600328;-23
2022/08/06 01:58:38;;;;;;;2.70;2.20;;;;;;;16.67;77.98;98897.30;103963;1284;64859;-23
2022/08/06 02:01:12;;;;;;;6.60;2.70;;;;;;;17.06;76.22;98899.73;103847;1284;61816;-23
2022/08/06 02:03:47;;;;;;;3.10;2.80;;;;;;;17.41;74.79;98899.20;103713;1287;72252;-23
2022/08/06 02:06:40;;;;;;;4.40;3.20;;;;;;;17.28;75.10;98901.02;103989;1284;77105;-23
2022/08/06 02:09:11;;;;;;;5.10;4.00;;;;;;;16.94;76.77;98901.20;102891;1284;1528922;-23
2022/08/06 02:12:02;;;;;;;4.60;4.10;;;;;;;16.64;79.78;98906.98;104173;1284;61520;-23
2022/08/06 02:14:42;;;;;;;6.70;5.30;;;;;;;16.44;82.46;98908.42;103748;1284;61186;-23
2022/08/06 02:17:11;;;;;;;6.20;5.30;;;;;;;16.86;83.58;98908.20;104327;1284;72777;-23
2022/08/06 02:19:50;;;;;;;7.60;6.10;;;;;;;17.30;81.16;98901.17;104254;1284;76965;-23
2022/08/06 02:22:38;;;;;;;5.90;5.00;;;;;;;17.25;81.05;98895.56;104192;1283;75606;-23
2022/08/06 02:25:11;;;;;;;5.40;4.80;;;;;;;17.18;79.22;98899.16;104160;1284;62102;-23
2022/08/06 02:27:52;;;;;;;5.50;4.80;;;;;;;17.02;78.28;98900.17;104282;1284;63032;-23
2022/08/06 02:30:28;;;;;;;4.80;4.00;;;;;;;16.85;78.36;98903.59;104371;1284;73703;-23
2022/08/06 02:33:02;;;;;;;6.00;4.70;;;;;;;17.29;78.37;98899.85;104198;1284;76979;-23
2022/08/06 02:35:32;;;;;;;8.30;5.50;;;;;;;17.54;80.61;98894.92;104125;1284;75315;-23
2022/08/06 02:38:07;;;;;;;6.70;5.50;;;;;;;17.61;79.72;98900.08;103884;1284;63056;-23
2022/08/06 02:40:38;;;;;;;6.60;5.50;;;;;;;17.54;78.36;98900.25;104341;1284;63285;-23
2022/08/06 02:43:15;;;;;;;6.90;5.60;;;;;;;17.31;79.91;98896.27;104208;1284;75771;-23
2022/08/06 02:45:56;;;;;;;4.70;3.80;;;;;;;17.10;82.61;98898.80;104015;1284;76354;-23
2022/08/06 02:48:27;;;;;;;5.10;3.70;;;;;;;17.63;79.10;98894.86;104349;1284;75242;-23
2022/08/06 02:50:59;;;;;;;16.50;8.50;;;;;;;17.99;78.06;98891.63;104296;1287;62816;-23
2022/08/06 02:53:49;;;;;;;8.30;6.30;;;;;;;17.91;79.28;98891.31;104454;1284;61836;-23
2022/08/06 02:56:32;;;;;;;7.80;6.30;;;;;;;17.75;78.68;98896.45;104187;1286;75553;-23
2022/08/06 02:59:08;;;;;;;6.30;5.70;;;;;;;17.51;78.95;98895.63;104177;1286;76923;-23
2022/08/06 03:01:38;;;;;;;4.10;3.40;;;;;;;17.35;78.32;98895.62;104432;1284;74388;-23
2022/08/06 03:04:10;;;;;;;11.30;7.10;;;;;;;17.79;77.19;98895.88;104129;1284;62002;-23
2022/08/06 03:06:38;;;;;;;12.60;7.70;;;;;;;18.24;76.08;98898.67;104305;1284;61217;-23
2022/08/06 03:09:05;;;;;;;9.00;6.50;;;;;;;18.26;75.28;98896.77;104054;1284;75988;-23
2022/08/06 03:11:33;;;;;;;10.80;6.00;;;;;;;18.10;75.32;98901.95;104146;1284;76808;-24
2022/08/06 03:14:05;;;;;;;7.40;5.20;;;;;;;17.88;75.55;98899.88;103795;1284;75630;-24
2022/08/06 03:16:52;;;;;;;6.80;5.40;;;;;;;17.62;76.02;98898.81;104297;1284;62767;-24
2022/08/06 03:19:25;;;;;;;6.80;4.30;;;;;;;17.43;76.73;98903.21;103707;1284;61798;-24
2022/08/06 03:22:12;;;;;;;7.20;4.50;;;;;;;17.99;76.32;98912.00;104049;1284;75773;-24
2022/08/06 03:25:00;;;;;;;6.90;5.40;;;;;;;18.47;74.75;98910.48;104012;1284;75671;-24
2022/08/06 03:27:30;;;;;;;7.30;5.20;;;;;;;18.51;74.26;98910.65;103844;1285;75449;-24
2022/08/06 03:30:15;;;;;;;22.60;20.40;;;;;;;18.38;74.65;98907.94;103924;1285;63131;-24
2022/08/06 03:32:58;;;;;;;20.90;18.70;;;;;;;18.18;75.35;98909.46;104167;1284;62877;-24
2022/08/06 03:35:35;;;;;;;12.10;10.90;;;;;;;18.02;76.91;98909.38;103887;1283;75628;-24
2022/08/06 03:38:17;;;;;;;9.70;8.50;;;;;;;18.64;75.66;98910.83;104081;1284;76945;-24
2022/08/06 03:40:45;;;;;;;8.00;7.10;;;;;;;19.28;74.12;98911.56;104397;1284;74303;-24
2022/08/06 03:43:15;;;;;;;14.40;11.00;;;;;;;19.55;72.15;98903.81;104249;1284;63151;-24
2022/08/06 03:45:58;;;;;;;13.00;10.10;;;;;;;19.52;71.49;98904.31;104181;1287;61096;-24
2022/08/06 03:48:28;;;;;;;11.50;9.50;;;;;;;19.44;71.94;98907.78;103793;1284;74761;-24
2022/08/06 03:51:16;;;;;;;11.20;8.40;;;;;;;19.33;72.21;98918.41;104287;1284;76975;-24
2022/08/06 03:54:05;;;;;;;22.80;7.20;;;;;;;19.27;73.14;98923.36;103941;1284;75210;-24
2022/08/06 03:56:33;;;;;;;11.30;8.50;;;;;;;20.00;72.33;98924.59;103808;1284;62909;-24
2022/08/06 03:59:02;;;;;;;14.40;8.00;;;;;;;20.61;70.21;98927.69;103742;1284;62045;-24
2022/08/06 04:01:35;;;;;;;11.20;7.80;;;;;;;20.78;69.86;98933.95;103654;1284;75801;-24
2022/08/06 04:04:18;;;;;;;9.20;6.50;;;;;;;20.70;69.74;98937.96;103903;1284;77072;-24
2022/08/06 04:06:57;;;;;;;11.60;7.60;;;;;;;20.57;70.05;98946.36;103734;1283;75492;-24
2022/08/06 04:09:30;;;;;;;12.40;8.50;;;;;;;20.54;70.51;98944.11;103993;1284;61311;-24
2022/08/06 04:12:17;;;;;;;9.90;7.90;;;;;;;20.53;70.96;98943.49;104248;1284;62058;-24
2022/08/06 04:15:06;;;;;;;9.90;5.80;;;;;;;20.59;71.32;98941.50;104133;1284;73243;-24
2022/08/06 04:17:36;;;;;;;7.40;6.20;;;;;;;21.37;70.14;98933.48;104330;1278;77069;-24
2022/08/06 04:20:10;;;;;;;8.70;6.80;;;;;;;22.05;68.31;98930.48;104592;1277;75386;-24
2022/08/06 04:22:37;;;;;;;8.60;7.60;;;;;;;22.23;67.64;98930.66;104244;1278;61289;-24
2022/08/06 04:25:25;;;;;;;9.70;8.00;;;;;;;22.25;67.39;98938.30;104656;1277;62360;-24
2022/08/06 04:27:54;;;;;;;14.70;11.00;;;;;;;22.25;66.84;98934.59;104726;1277;75795;-24
2022/08/06 04:30:23;;;;;;;10.90;9.50;;;;;;;22.30;67.09;98931.31;104503;1278;76837;-24
2022/08/06 04:32:51;;;;;;;16.80;13.70;;;;;;;22.42;66.86;98930.86;104380;1278;74173;-24
2022/08/06 04:35:28;;;;;;;13.40;10.70;;;;;;;22.60;66.25;98937.60;104622;1278;61040;-24
2022/08/06 04:38:17;;;;;;;13.90;11.70;;;;;;;22.71;65.74;98938.23;104477;1278;62888;-24
2022/08/06 04:40:57;;;;;;;9.90;8.00;;;;;;;22.88;65.71;98934.06;104394;1277;75725;-24
2022/08/06 04:43:30;;;;;;;13.20;10.30;;;;;;;23.72;64.21;98930.25;104400;1277;77102;-24
2022/08/06 04:46:17;;;;;;;10.80;9.60;;;;;;;24.40;62.28;98936.02;104416;1277;75592;-24
2022/08/06 04:48:47;;;;;;;14.90;11.60;;;;;;;24.60;62.05;98942.70;104489;1278;61029;-24
2022/08/06 04:51:19;;;;;;;;;;;;;;;24.63;60.65;98938.69;104553;1277;61897;-24
2022/08/06 04:54:06;;;;;;;13.70;11.10;;;;;;;24.49;61.77;98943.73;104397;1278;75722;-24
2022/08/06 04:56:39;;;;;;;13.70;12.00;;;;;;;24.41;62.05;98940.83;104281;1278;75975;-24
2022/08/06 04:59:17;;;;;;;13.10;11.70;;;;;;;24.30;62.87;98945.16;104394;1281;75377;-24
2022/08/06 05:01:45;;;;;;;11.60;10.40;;;;;;;24.09;62.35;98943.61;104272;1281;61726;-24
2022/08/06 05:04:30;;;;;;;13.70;10.90;;;;;;;23.91;63.88;98944.32;104618;1277;63320;-24
2022/08/06 05:07:23;;;;;;;12.00;10.60;;;;;;;23.99;63.81;98940.68;104645;1280;75764;-24
2022/08/06 05:10:04;;;;;;;11.00;9.90;;;;;;;24.24;62.95;98936.85;104525;1280;76962;-24
2022/08/06 05:12:33;;;;;;;10.20;9.20;;;;;;;24.44;62.29;98944.60;104609;1281;75210;-24
2022/08/06 05:15:30;;;;;;;10.70;9.70;;;;;;;24.55;61.89;98943.55;104597;1278;62785;-24
2022/08/06 05:18:17;;;;;;;9.90;8.80;;;;;;;24.61;61.93;98944.33;104675;1278;63456;-24
2022/08/06 05:21:04;;;;;;;9.60;8.70;;;;;;;24.73;61.21;98946.02;104644;1278;75732;-24
2022/08/06 05:23:44;;;;;;;10.10;9.10;;;;;;;24.68;61.21;98943.48;104587;1277;76721;-24
2022/08/06 05:26:13;;;;;;;9.70;8.70;;;;;;;24.76;61.74;98943.41;104599;1276;75327;-24
2022/08/06 05:28:52;;;;;;;11.10;8.40;;;;;;;24.88;61.53;98942.80;104598;1280;61749;-24
2022/08/06 05:31:29;;;;;;;9.40;8.30;;;;;;;25.03;61.17;98945.06;104658;1278;63355;-24
2022/08/06 05:34:05;;;;;;;9.40;8.10;;;;;;;25.18;60.93;98942.09;104410;1278;75730;-24
2022/08/06 05:36:33;;;;;;;8.60;7.50;;;;;;;25.29;60.55;98934.14;104529;1278;75937;-24
2022/08/06 05:39:02;;;;;;;8.50;7.60;;;;;;;25.41;60.24;98937.47;104577;1277;74384;-24
2022/08/06 05:41:34;;;;;;;8.90;8.00;;;;;;;25.51;59.57;98939.41;104334;1280;61236;-24
2022/08/06 05:44:05;;;;;;;8.30;7.40;;;;;;;25.60;59.62;98934.02;104559;1277;61712;-24
2022/08/06 05:46:40;;;;;;;9.80;8.10;;;;;;;25.70;59.54;98938.86;104549;1278;74082;-24
2022/08/06 05:49:10;;;;;;;10.00;7.70;;;;;;;25.73;59.47;98941.36;104647;1277;77079;-24
2022/08/06 05:52:03;;;;;;;11.10;7.50;;;;;;;25.75;58.90;98937.45;104305;1277;75217;-24
2022/08/06 05:54:37;;;;;;;10.10;7.30;;;;;;;25.77;59.37;98936.18;104476;1278;62107;-24
2022/08/06 05:57:38;;;;;;;8.50;7.60;;;;;;;25.77;59.42;98931.86;104689;1278;62936;-24
2022/08/06 06:00:14;;;;;;;9.90;8.30;;;;;;;25.81;59.38;98932.23;104703;1277;75823;-24
2022/08/06 06:03:03;;;;;;;9.40;7.80;;;;;;;25.86;59.04;98935.02;104661;1278;75863;-24
2022/08/06 06:05:33;;;;;;;8.10;7.30;;;;;;;25.86;58.93;98933.21;104586;1278;75411;-24
2022/08/06 06:08:21;;;;;;;8.20;7.40;;;;;;;25.57;59.79;98932.04;104604;1278;61099;-24
2022/08/06 06:11:09;;;;;;;8.20;7.20;;;;;;;25.60;59.87;98930.09;104660;1276;63035;-24
2022/08/06 06:13:39;;;;;;;8.80;7.80;;;;;;;25.67;59.72;98923.02;104491;1280;75894;-23
2022/08/06 06:16:48;;;;;;;10.10;7.70;;;;;;;25.75;59.34;98928.98;104455;1280;77470;-24
2022/08/06 06:19:56;;;;;;;9.10;7.90;;;;;;;25.88;59.49;98931.96;104657;1278;75470;-24
2022/08/06 06:22:35;;;;;;;15.70;7.80;;;;;;;25.79;60.08;98924.75;104643;1277;62828;-26
2022/08/06 06:25:10;;;;;;;8.70;7.80;;;;;;;25.99;59.81;98919.23;104711;1277;62729;-24
2022/08/06 06:27:55;;;;;;;8.30;7.10;;;;;;;26.09;58.88;98918.11;104673;1277;74299;-24
2022/08/06 06:30:46;;;;;;;9.20;7.70;;;;;;;26.14;59.09;98913.50;104494;1278;76712;-23
2022/08/06 06:33:26;;;;;;;7.80;6.30;;;;;;;26.39;58.38;98913.39;104537;1276;75351;-24
2022/08/06 06:36:21;;;;;;;9.60;7.00;;;;;;;26.52;58.20;98916.30;104509;1277;62818;-23
2022/08/06 06:39:04;;;;;;;8.40;6.30;;;;;;;26.74;56.93;98917.67;104422;1278;62090;-24
2022/08/06 06:41:43;;;;;;;8.00;6.70;;;;;;;26.99;56.17;98915.26;104560;1277;75756;-24
2022/08/06 06:44:38;;;;;;;7.20;5.90;;;;;;;27.18;56.03;98916.17;104545;1277;76856;-24
2022/08/06 06:47:48;;;;;;;6.50;5.90;;;;;;;27.23;55.21;98915.48;104573;1278;75411;-25
2022/08/06 06:50:31;;;;;;;7.50;6.70;;;;;;;27.44;55.45;98911.05;104520;1277;61973;-24
2022/08/06 06:53:02;;;;;;;8.30;6.40;;;;;;;27.58;55.19;98909.94;104574;1281;60975;-24
2022/08/06 06:55:32;;;;;;;8.90;6.70;;;;;;;27.61;53.82;98912.98;104745;1278;76251;-24
2022/08/06 06:58:42;;;;;;;6.90;5.90;;;;;;;27.35;54.32;98911.55;104684;1277;76896;-24
2022/08/06 07:01:14;;;;;;;7.40;6.70;;;;;;;27.34;55.60;98912.09;104539;1278;75360;-24
2022/08/06 07:03:56;;;;;;;9.10;6.80;;;;;;;26.90;55.70;98911.90;104397;1278;61725;-24
2022/08/06 07:06:23;;;;;;;7.00;6.40;;;;;;;27.00;56.36;98906.64;104220;1278;61991;-24
2022/08/06 07:09:09;;;;;;;6.80;6.20;;;;;;;27.23;55.70;98907.89;104273;1278;76578;-24
2022/08/06 07:11:44;;;;;;;7.40;6.80;;;;;;;27.31;54.91;98905.89;104423;1277;75620;-24
2022/08/06 07:14:30;;;;;;;7.10;6.30;;;;;;;27.39;55.90;98908.19;104640;1278;74262;-25
2022/08/06 07:16:59;;;;;;;8.10;6.60;;;;;;;27.46;55.29;98906.34;104477;1278;63299;-24
2022/08/06 07:19:27;;;;;;;7.40;6.70;;;;;;;27.43;55.28;98903.50;104652;1277;61545;-24
2022/08/06 07:21:56;;;;;;;7.10;6.40;;;;;;;27.22;55.22;98901.76;104655;1277;75529;-24
2022/08/06 07:24:24;;;;;;;7.20;6.30;;;;;;;27.06;55.33;98903.77;104230;1278;77392;-23
2022/08/06 07:27:08;;;;;;;7.40;6.70;;;;;;;27.28;56.02;98897.23;104428;1277;75338;-23
2022/08/06 07:29:55;;;;;;;7.50;6.70;;;;;;;27.71;55.27;98901.70;104693;1277;62888;-23
2022/08/06 07:32:28;;;;;;;7.30;6.40;;;;;;;28.09;54.14;98900.99;104654;1277;60997;-23
2022/08/06 07:35:00;;;;;;;7.90;7.20;;;;;;;28.28;52.58;98906.10;104617;1277;75580;-23
2022/08/06 07:37:42;;;;;;;7.30;6.60;;;;;;;28.48;52.03;98909.66;104564;1278;76764;-24
2022/08/06 07:40:22;;;;;;;7.30;6.20;;;;;;;28.54;51.83;98911.92;104543;1277;75414;-24
2022/08/06 07:43:05;;;;;;;7.40;6.70;;;;;;;28.69;52.23;98906.19;104199;1278;63035;-23
2022/08/06 07:45:52;;;;;;;7.10;6.40;;;;;;;29.08;50.38;98907.48;104286;1278;60989;-24
2022/08/06 07:48:27;;;;;;;7.30;6.60;;;;;;;28.82;50.57;98909.27;104540;1277;76319;-24
2022/08/06 07:50:59;;;;;;;7.70;7.00;;;;;;;28.12;51.70;98906.77;104378;1278;76020;-24
2022/08/06 07:53:26;;;;;;;7.10;6.30;;;;;;;28.61;51.35;98911.05;104431;1277;75702;-24
2022/08/06 07:56:14;;;;;;;8.30;7.50;;;;;;;28.93;50.40;98915.29;104678;1277;63010;-24
2022/08/06 07:58:41;;;;;;;7.70;6.90;;;;;;;29.07;51.10;98915.09;104538;1278;61119;-24
2022/08/06 08:01:12;;;;;;;7.90;7.00;;;;;;;29.05;51.07;98911.73;104578;1278;76544;-24
2022/08/06 08:06:56;;;;;;;7.80;6.30;;;;;;;29.33;50.30;98908.19;104547;1274;75595;-24
2022/08/06 08:09:23;;;;;;;7.30;6.30;;;;;;;29.48;49.37;98905.58;104353;1274;63094;-24
2022/08/06 08:12:16;;;;;;;8.40;6.10;;;;;;;29.62;49.25;98907.36;104570;1274;63001;-24
2022/08/06 08:15:03;;;;;;;8.50;7.40;;;;;;;29.09;48.89;98904.52;104615;1277;76547;-24
2022/08/06 08:17:43;;;;;;;7.80;7.00;;;;;;;28.27;51.10;98902.34;104526;1274;77034;-24
2022/08/06 08:20:11;;;;;;;7.00;6.20;;;;;;;28.80;50.93;98903.23;104616;1274;75356;-24
2022/08/06 08:22:46;;;;;;;7.70;6.60;;;;;;;29.00;50.23;98906.41;104269;1277;62103;-24
2022/08/06 08:25:18;;;;;;;7.50;6.80;;;;;;;28.87;49.26;98908.46;104551;1274;62447;-24
2022/08/06 08:28:06;;;;;;;8.20;7.40;;;;;;;28.07;50.09;98906.90;104577;1274;77002;-24
2022/08/06 08:30:39;;;;;;;;;;;;;;;27.87;51.34;98906.04;104618;1274;76506;-24
2022/08/06 08:33:09;;;;;;;8.30;7.50;;;;;;;28.22;50.59;98907.34;104541;1274;74549;-24
2022/08/06 08:35:48;;;;;;;8.00;7.10;;;;;;;28.14;50.45;98903.42;104631;1274;63084;-24
2022/08/06 08:38:31;;;;;;;9.80;8.60;;;;;;;28.68;49.60;98906.34;104537;1274;61143;-24
2022/08/06 08:41:26;;;;;;;9.30;7.80;;;;;;;28.88;48.85;98907.95;104437;1274;76286;-24
2022/08/06 08:44:13;;;;;;;8.90;8.00;;;;;;;28.98;48.65;98909.13;104450;1275;75074;-24
2022/08/06 08:46:52;;;;;;;8.20;7.40;;;;;;;28.85;48.68;98913.58;104556;1274;75442;-24
2022/08/06 08:49:46;;;;;;;10.10;7.10;;;;;;;28.87;49.45;98913.67;104535;1277;61977;-24
2022/08/06 08:52:19;;;;;;;9.20;8.10;;;;;;;28.91;48.81;98913.55;104542;1277;61994;-24
2022/08/06 08:54:50;;;;;;;8.40;7.10;;;;;;;28.98;49.22;98915.30;104350;1274;76637;-24
2022/08/06 08:57:17;;;;;;;9.90;6.90;;;;;;;29.09;48.47;98915.92;104292;1274;75868;-24
2022/08/06 09:00:06;;;;;;;7.00;6.40;;;;;;;29.04;48.37;98919.19;104611;1274;75398;-24
2022/08/06 09:02:39;;;;;;;7.30;6.60;;;;;;;28.96;48.81;98917.09;104276;1278;61205;-24
2022/08/06 09:05:17;;;;;;;8.60;7.10;;;;;;;29.06;49.21;98916.31;104222;1277;61845;-24
2022/08/06 09:07:44;;;;;;;7.40;6.70;;;;;;;29.34;48.58;98914.80;104562;1275;75768;-24
2022/08/06 09:10:27;;;;;;;7.60;6.80;;;;;;;29.65;46.28;98915.90;104577;1276;76159;-24
2022/08/06 09:12:58;;;;;;;7.30;6.50;;;;;;;29.57;46.68;98919.17;104615;1274;74028;-24
2022/08/06 09:15:27;;;;;;;7.20;6.50;;;;;;;29.89;45.99;98916.77;104574;1274;62769;-24
2022/08/06 09:17:58;;;;;;;7.20;5.90;;;;;;;30.22;46.50;98912.63;104775;1274;62819;-24
2022/08/06 09:20:39;;;;;;;6.80;5.80;;;;;;;30.30;45.11;98908.60;104646;1275;76673;-24
2022/08/06 09:23:15;;;;;;;6.40;5.80;;;;;;;30.32;45.16;98909.95;104496;1274;76149;-24
2022/08/06 09:25:50;;;;;;;6.90;6.20;;;;;;;30.35;44.46;98909.60;104504;1274;75877;-25
2022/08/06 09:28:31;;;;;;;8.00;6.50;;;;;;;30.20;45.04;98911.86;104586;1274;63049;-24
2022/08/06 09:31:20;;;;;;;8.00;6.20;;;;;;;29.98;45.97;98909.65;104687;1274;61134;-24
2022/08/06 09:34:07;;;;;;;9.60;8.60;;;;;;;29.79;45.51;98911.27;104560;1274;76685;-24
2022/08/06 09:36:55;;;;;;;7.80;7.10;;;;;;;29.66;46.14;98913.52;104642;1274;76762;-24
2022/08/06 09:39:39;;;;;;;8.30;6.80;;;;;;;29.90;46.65;98907.45;104675;1277;75671;-24
2022/08/06 09:42:40;;;;;;;6.30;5.70;;;;;;;30.27;43.93;98903.21;104603;1274;62732;-25
2022/08/06 09:45:13;;;;;;;7.20;6.50;;;;;;;30.44;43.47;98903.46;104623;1274;62500;-24
2022/08/06 09:47:45;;;;;;;8.20;6.30;;;;;;;30.18;43.50;98903.96;104638;1277;76901;-24
2022/08/06 09:50:36;;;;;;;6.40;5.60;;;;;;;30.04;44.35;98910.63;104385;1275;77101;-24
2022/08/06 09:53:04;;;;;;;6.60;5.40;;;;;;;29.75;45.07;98909.35;104418;1274;74110;-24
2022/08/06 09:55:41;;;;;;;6.10;5.60;;;;;;;29.76;44.68;98906.41;104494;1277;62918;-24
2022/08/06 09:58:10;;;;;;;6.60;5.40;;;;;;;29.60;44.64;98907.17;104770;1274;61167;-24
2022/08/06 10:00:38;;;;;;;7.10;5.60;;;;;;;29.53;45.95;98908.20;104709;1274;74253;-24
2022/08/06 10:03:09;;;;;;;9.60;8.50;;;;;;;29.30;45.66;98908.80;104695;1277;76031;-24
2022/08/06 10:06:08;;;;;;;8.60;7.70;;;;;;;29.13;46.24;98905.06;104548;1277;75371;-23
2022/08/06 10:08:41;;;;;;;7.60;6.80;;;;;;;29.46;45.63;98907.20;104576;1275;62312;-24
2022/08/06 10:11:35;;;;;;;6.90;6.10;;;;;;;29.45;45.45;98909.62;104575;1274;61595;-24
2022/08/06 10:14:22;;;;;;;11.20;7.90;;;;;;;29.50;44.86;98909.45;104588;1274;76567;-24
2022/08/06 10:17:11;;;;;;;7.10;6.10;;;;;;;29.68;43.91;98907.89;104554;1275;76804;-24
2022/08/06 10:19:44;;;;;;;6.90;5.80;;;;;;;30.12;44.07;98901.55;104460;1274;75520;-24
2022/08/06 10:22:19;;;;;;;7.20;5.50;;;;;;;31.01;40.71;98897.04;104691;1275;62933;-24
2022/08/06 10:24:51;;;;;;;8.90;5.50;;;;;;;31.61;40.66;98899.27;104580;1274;61147;-24
2022/08/06 10:27:23;;;;;;;7.10;5.80;;;;;;;31.59;40.39;98895.83;104434;1277;74808;-24
2022/08/06 10:30:06;;;;;;;;;;;;;;;31.47;41.11;98896.13;104438;1274;77067;-24
2022/08/06 10:32:38;;;;;;;12.10;10.90;;;;;;;30.85;41.67;98895.89;104687;1274;74291;-24
2022/08/06 10:35:10;;;;;;;6.00;5.40;;;;;;;31.18;41.50;98900.48;104424;1274;63060;-24
2022/08/06 10:37:41;;;;;;;8.50;5.40;;;;;;;31.40;40.28;98900.75;104495;1274;62226;-24
2022/08/06 10:40:15;;;;;;;8.90;6.30;;;;;;;31.08;40.37;98900.81;104635;1274;75514;-24
2022/08/06 10:42:59;;;;;;;9.90;7.00;;;;;;;30.68;41.48;98900.88;104544;1274;76908;-24
2022/08/06 10:45:26;;;;;;;15.70;14.10;;;;;;;29.94;42.71;98904.52;104401;1275;74654;-24
2022/08/06 10:48:15;;;;;;;7.90;6.30;;;;;;;29.72;43.23;98899.55;104438;1274;61064;-24
2022/08/06 10:51:04;;;;;;;8.60;5.90;;;;;;;30.02;44.12;98894.94;104509;1274;62040;-25
2022/08/06 10:53:33;;;;;;;6.50;5.90;;;;;;;29.90;43.59;98897.34;104479;1274;76342;-25
2022/08/06 10:56:21;;;;;;;6.30;5.70;;;;;;;29.86;44.27;98898.00;104559;1277;77203;-24
2022/08/06 10:58:57;;;;;;;5.50;5.00;;;;;;;29.94;42.99;98898.55;104627;1274;75408;-24
2022/08/06 11:02:10;;;;;;;5.80;4.90;;;;;;;29.96;43.31;98900.51;104380;1274;61778;-24
2022/08/06 11:04:55;;;;;;;5.40;4.90;;;;;;;29.80;43.17;98897.73;104630;1274;62010;-25
2022/08/06 11:07:26;;;;;;;5.50;5.00;;;;;;;29.65;43.13;98902.71;105131;1271;76549;-25
2022/08/06 11:10:51;;;;;;;5.70;5.10;;;;;;;29.53;43.33;98903.63;105083;1271;77076;-24
2022/08/06 11:14:00;;;;;;;14.50;6.20;;;;;;;29.41;43.49;98898.89;104956;1271;75438;-24
2022/08/06 11:16:30;;;;;;;10.30;8.40;;;;;;;29.22;43.96;98896.33;104757;1271;61075;-24
2022/08/06 11:19:10;;;;;;;8.30;6.90;;;;;;;29.07;44.06;98898.04;104784;1271;62973;-24
2022/08/06 11:21:44;;;;;;;7.20;5.90;;;;;;;29.09;44.32;98901.27;104684;1274;76352;-24
2022/08/06 11:24:30;;;;;;;5.60;5.10;;;;;;;29.08;44.41;98900.35;105018;1274;77018;-25
2022/08/06 11:27:03;;;;;;;8.00;5.80;;;;;;;28.99;44.92;98894.03;105074;1271;75199;-24
2022/08/06 11:30:12;;;;;;;5.60;4.90;;;;;;;29.13;43.88;98889.41;105055;1271;61140;-24
2022/08/06 11:32:50;;;;;;;4.80;4.40;;;;;;;29.31;43.04;98890.19;105043;1272;63397;-24
2022/08/06 11:35:32;;;;;;;8.00;6.20;;;;;;;29.69;42.38;98887.51;105116;1272;75420;-24
2022/08/06 11:38:03;;;;;;;6.50;5.00;;;;;;;30.39;41.00;98885.19;104722;1271;76599;-24
2022/08/06 11:41:02;;;;;;;5.80;4.40;;;;;;;30.93;40.88;98878.73;104959;1271;75381;-24
2022/08/06 11:43:51;;;;;;;5.20;4.70;;;;;;;31.45;39.81;98881.39;104595;1271;62076;-24
2022/08/06 11:46:33;;;;;;;5.10;4.40;;;;;;;31.64;38.78;98882.05;104960;1271;61217;-24
2022/08/06 11:49:03;;;;;;;5.50;4.10;;;;;;;31.91;38.72;98882.61;104977;1271;76260;-24
2022/08/06 11:51:47;;;;;;;4.80;4.40;;;;;;;32.10;38.12;98884.41;104676;1271;75897;-24
2022/08/06 11:54:32;;;;;;;4.00;3.70;;;;;;;32.00;38.24;98883.08;104713;1271;74750;-24
2022/08/06 11:57:01;;;;;;;4.90;4.40;;;;;;;31.80;38.76;98881.97;104623;1271;61622;-24
2022/08/06 11:59:30;;;;;;;5.30;4.00;;;;;;;31.63;39.43;98882.31;104842;1271;62843;-24
2022/08/06 12:02:08;;;;;;;4.20;3.70;;;;;;;31.59;39.19;98881.46;104930;1271;75844;-25
2022/08/06 12:04:38;;;;;;;5.00;3.70;;;;;;;31.78;36.41;98875.30;104762;1271;76895;-24
2022/08/06 12:07:26;;;;;;;5.40;4.20;;;;;;;32.03;35.95;98870.53;105052;1271;75365;-24
2022/08/06 12:10:05;;;;;;;4.70;3.40;;;;;;;32.34;36.46;98874.16;104841;1271;62897;-24
2022/08/06 12:12:34;;;;;;;5.20;4.00;;;;;;;32.37;36.11;98872.32;104697;1271;61084;-24
2022/08/06 12:15:04;;;;;;;6.70;4.90;;;;;;;32.26;36.24;98873.05;104947;1271;75437;-24
2022/08/06 12:17:58;;;;;;;5.80;4.30;;;;;;;31.83;37.17;98873.52;104848;1271;76970;-24
2022/08/06 12:20:45;;;;;;;3.90;3.50;;;;;;;31.73;37.84;98871.42;105038;1271;74525;-25
2022/08/06 12:23:23;;;;;;;4.40;3.70;;;;;;;31.97;37.00;98865.91;104818;1274;63052;-24